createdAt,value
2018-09-30T00:00:31.568Z,72.13
2018-09-30T00:03:09.688Z,77.37
2018-09-30T00:05:48.088Z,60.47
2018-09-30T00:08:27.445Z,63.13
2018-09-30T00:11:05.906Z,64.17
2018-09-30T00:13:44.069Z,63.83
2018-09-30T00:16:22.507Z,64.07
2018-09-30T00:19:02.215Z,59.93
2018-09-30T00:21:41.285Z,58.17
2018-09-30T00:24:22.973Z,50.10
2018-09-30T00:27:03.415Z,50.33
2018-09-30T00:29:43.366Z,52.50
2018-09-30T00:32:21.445Z,49.93
2018-09-30T00:34:58.270Z,53.53
2018-09-30T00:37:35.186Z,51.57
2018-09-30T00:40:13.888Z,52.97
2018-09-30T00:42:52.106Z,54.27
2018-09-30T00:45:30.471Z,52.63
2018-09-30T00:48:08.730Z,48.33
2018-09-30T00:50:46.767Z,49.00
2018-09-30T00:53:25.048Z,49.80
2018-09-30T00:56:02.949Z,44.37
2018-09-30T00:58:45.725Z,46.20
2018-09-30T01:01:25.582Z,47.60
2018-09-30T01:04:04.430Z,47.87
2018-09-30T01:06:42.685Z,47.10
2018-09-30T01:09:21.890Z,48.87
2018-09-30T01:11:59.873Z,53.23
2018-09-30T01:14:38.469Z,52.43
2018-09-30T01:17:18.329Z,53.23
2018-09-30T01:19:57.268Z,54.83
2018-09-30T01:22:36.546Z,54.40
2018-09-30T01:25:15.472Z,56.40
2018-09-30T01:27:54.052Z,56.77
2018-09-30T01:30:32.251Z,52.53
2018-09-30T01:33:10.257Z,56.43
2018-09-30T01:35:48.411Z,47.67
2018-09-30T01:38:26.969Z,51.37
2018-09-30T01:41:05.153Z,49.33
2018-09-30T01:43:43.288Z,50.23
2018-09-30T01:46:23.546Z,51.37
2018-09-30T01:49:01.988Z,48.33
2018-09-30T01:51:40.227Z,47.53
2018-09-30T01:54:20.285Z,52.43
2018-09-30T01:56:59.629Z,51.50
2018-09-30T01:59:38.053Z,48.93
2018-09-30T02:02:16.110Z,42.03
2018-09-30T02:04:54.806Z,45.83
2018-09-30T02:07:34.316Z,36.50
2018-09-30T02:10:13.347Z,36.40
2018-09-30T02:12:51.291Z,40.87
2018-09-30T02:15:29.603Z,40.07
2018-09-30T02:18:08.415Z,37.73
2018-09-30T02:20:46.750Z,38.33
2018-09-30T02:23:25.648Z,39.50
2018-09-30T02:26:04.346Z,44.50
2018-09-30T02:28:41.472Z,45.73
2018-09-30T02:31:19.496Z,60.67
2018-09-30T02:33:57.509Z,61.00
2018-09-30T02:36:35.667Z,51.13
2018-09-30T02:39:15.988Z,57.10
2018-09-30T02:41:54.529Z,48.03
2018-09-30T02:44:32.730Z,52.43
2018-09-30T02:47:11.128Z,53.83
2018-09-30T02:49:49.793Z,47.93
2018-09-30T02:52:26.993Z,46.83
2018-09-30T02:55:05.128Z,50.93
2018-09-30T02:57:46.227Z,52.80
2018-09-30T03:00:24.952Z,53.83
2018-09-30T03:03:03.356Z,56.87
2018-09-30T03:05:41.711Z,51.90
2018-09-30T03:08:23.509Z,54.30
2018-09-30T03:11:02.425Z,46.50
2018-09-30T03:13:40.615Z,44.00
2018-09-30T03:16:18.726Z,49.93
2018-09-30T03:18:57.565Z,50.03
2018-09-30T03:21:36.886Z,47.23
2018-09-30T03:24:16.103Z,45.83
2018-09-30T03:26:54.268Z,53.87
2018-09-30T03:29:33.805Z,51.43
2018-09-30T03:32:13.378Z,57.87
2018-09-30T03:34:52.162Z,48.20
2018-09-30T03:37:31.585Z,46.10
2018-09-30T03:40:10.944Z,44.90
2018-09-30T03:42:50.220Z,45.77
2018-09-30T03:45:28.466Z,48.37
2018-09-30T03:48:08.066Z,40.80
2018-09-30T03:50:46.763Z,59.40
2018-09-30T03:53:25.744Z,59.30
2018-09-30T03:56:04.326Z,53.00
2018-09-30T03:58:42.344Z,47.07
2018-09-30T04:01:21.409Z,45.17
2018-09-30T04:04:01.768Z,46.70
2018-09-30T04:06:39.990Z,44.60
2018-09-30T04:09:18.565Z,54.17
2018-09-30T04:11:55.557Z,47.83
2018-09-30T04:14:34.777Z,49.10
2018-09-30T04:17:13.109Z,45.10
2018-09-30T04:19:51.010Z,53.20
2018-09-30T04:22:29.455Z,43.80
2018-09-30T04:25:09.535Z,47.33
2018-09-30T04:27:48.684Z,48.90
2018-09-30T04:30:28.468Z,47.37
2018-09-30T04:33:07.067Z,45.97
2018-09-30T04:35:45.826Z,67.37
2018-09-30T04:38:24.605Z,53.27
2018-09-30T04:41:03.686Z,64.70
2018-09-30T04:43:42.929Z,47.93
2018-09-30T04:46:23.166Z,48.10
2018-09-30T04:49:01.730Z,45.80
2018-09-30T04:51:39.626Z,53.93
2018-09-30T04:54:20.335Z,49.77
2018-09-30T04:57:01.224Z,57.23
2018-09-30T04:59:40.589Z,55.67
2018-09-30T05:02:19.791Z,46.07
2018-09-30T05:04:58.704Z,47.00
2018-09-30T05:07:36.992Z,48.33
2018-09-30T05:10:15.626Z,47.97
2018-09-30T05:12:54.529Z,40.80
2018-09-30T05:15:33.333Z,41.13
2018-09-30T05:18:12.151Z,49.87
2018-09-30T05:20:50.333Z,42.70
2018-09-30T05:23:29.978Z,47.77
2018-09-30T05:26:10.571Z,50.07
2018-09-30T05:28:50.455Z,50.77
2018-09-30T05:31:29.471Z,47.37
2018-09-30T05:34:09.047Z,48.27
2018-09-30T05:36:48.227Z,49.23
2018-09-30T05:39:30.684Z,42.70
2018-09-30T05:42:11.692Z,36.60
2018-09-30T05:44:50.645Z,42.10
2018-09-30T05:47:30.812Z,51.87
2018-09-30T05:50:10.424Z,43.33
2018-09-30T05:52:52.924Z,42.67
2018-09-30T05:55:36.223Z,38.07
2018-09-30T05:58:19.880Z,46.10
2018-09-30T06:01:05.762Z,45.73
2018-09-30T06:03:45.185Z,46.70
2018-09-30T06:06:23.429Z,50.63
2018-09-30T06:09:01.850Z,46.17
2018-09-30T06:11:41.578Z,51.47
2018-09-30T06:14:20.088Z,55.73
2018-09-30T06:16:59.485Z,61.77
2018-09-30T06:19:38.008Z,76.10
2018-09-30T06:22:16.287Z,64.00
2018-09-30T06:24:54.807Z,68.53
2018-09-30T06:27:34.109Z,53.27
2018-09-30T06:30:11.728Z,56.90
2018-09-30T06:32:51.629Z,59.97
2018-09-30T06:35:29.890Z,61.63
2018-09-30T06:38:06.805Z,67.07
2018-09-30T06:40:46.748Z,75.03
2018-09-30T06:43:26.337Z,66.20
2018-09-30T06:46:03.990Z,89.97
2018-09-30T06:48:43.569Z,103.33
2018-09-30T06:51:22.428Z,75.77
2018-09-30T06:53:58.975Z,70.87
2018-09-30T06:56:37.850Z,99.97
2018-09-30T06:59:19.151Z,98.13
2018-09-30T07:01:57.147Z,84.17
2018-09-30T07:04:35.724Z,73.97
2018-09-30T07:07:14.670Z,89.67
2018-09-30T07:09:53.605Z,63.80
2018-09-30T07:12:47.872Z,58.27
2018-09-30T07:15:24.312Z,52.90
2018-09-30T07:18:03.368Z,47.97
2018-09-30T07:20:45.091Z,46.43
2018-09-30T07:23:21.231Z,50.23
2018-09-30T07:25:59.709Z,47.90
2018-09-30T07:28:38.308Z,51.33
2018-09-30T07:31:18.851Z,51.73
2018-09-30T07:33:57.867Z,60.10
2018-09-30T07:36:38.285Z,55.03
2018-09-30T07:39:17.946Z,53.53
2018-09-30T07:41:57.489Z,43.00
2018-09-30T07:44:37.933Z,46.63
2018-09-30T07:47:17.488Z,31.50
2018-09-30T07:49:57.688Z,67.40
2018-09-30T07:52:37.279Z,41.93
2018-09-30T07:55:17.772Z,41.80
2018-09-30T07:58:03.125Z,49.13
2018-09-30T08:00:43.072Z,24.97
2018-09-30T08:03:19.946Z,64.60
2018-09-30T08:05:59.588Z,58.23
2018-09-30T08:08:42.970Z,54.63
2018-09-30T08:11:23.907Z,51.43
2018-09-30T08:14:01.869Z,35.17
2018-09-30T08:16:39.694Z,30.67
2018-09-30T08:19:21.328Z,29.83
2018-09-30T08:22:00.790Z,72.77
2018-09-30T08:24:38.786Z,67.20
2018-09-30T08:27:16.333Z,49.27
2018-09-30T08:29:54.066Z,28.03
2018-09-30T08:32:41.213Z,43.20
2018-09-30T08:35:18.329Z,252.70
2018-09-30T08:37:59.651Z,328.93
2018-09-30T08:43:21.865Z,150.10
2018-09-30T08:46:00.869Z,120.67
2018-09-30T08:48:41.710Z,141.27
2018-09-30T08:51:25.972Z,164.60
2018-09-30T08:54:05.606Z,67.23
2018-09-30T08:56:47.929Z,32.83
2018-09-30T08:59:29.665Z,31.70
2018-09-30T09:02:10.649Z,41.43
2018-09-30T09:04:50.034Z,65.90
2018-09-30T09:07:35.090Z,67.83
2018-09-30T09:10:16.983Z,48.67
2018-09-30T09:12:57.890Z,80.90
2018-09-30T09:15:40.272Z,54.60
2018-09-30T09:18:21.289Z,43.67
2018-09-30T09:21:01.232Z,49.00
2018-09-30T09:23:42.950Z,30.43
2018-09-30T09:26:23.189Z,29.73
2018-09-30T09:29:06.593Z,26.70
2018-09-30T09:31:46.527Z,26.60
2018-09-30T09:34:32.306Z,36.67
2018-09-30T09:37:15.052Z,53.90
2018-09-30T09:39:53.998Z,82.17
2018-09-30T09:42:34.867Z,102.07
2018-09-30T09:45:15.172Z,122.43
2018-09-30T09:47:57.333Z,143.27
2018-09-30T09:50:36.913Z,149.03
2018-09-30T09:53:16.948Z,198.87
2018-09-30T09:55:56.425Z,131.43
2018-09-30T09:58:42.952Z,137.40
2018-09-30T10:01:33.779Z,49.47
2018-09-30T10:04:15.572Z,64.10
2018-09-30T10:06:54.367Z,69.70
2018-09-30T10:09:36.106Z,67.40
2018-09-30T10:12:18.408Z,39.03
2018-09-30T10:14:56.759Z,29.70
2018-09-30T10:17:39.832Z,28.73
2018-09-30T10:20:18.428Z,50.53
2018-09-30T10:23:00.745Z,32.73
2018-09-30T10:25:43.144Z,25.93
2018-09-30T10:28:22.011Z,72.23
2018-09-30T10:31:00.169Z,33.40
2018-09-30T10:33:39.568Z,33.90
2018-09-30T10:36:18.750Z,29.87
2018-09-30T10:38:58.402Z,41.80
2018-09-30T10:41:38.287Z,25.30
2018-09-30T10:44:18.011Z,36.33
2018-09-30T10:47:01.007Z,36.67
2018-09-30T10:49:39.171Z,34.50
2018-09-30T10:52:21.371Z,37.20
2018-09-30T10:55:02.998Z,20.43
2018-09-30T10:57:45.142Z,21.13
2018-09-30T11:00:22.774Z,27.47
2018-09-30T11:03:00.743Z,21.67
2018-09-30T11:05:39.210Z,20.83
2018-09-30T11:08:34.665Z,20.80
2018-09-30T11:11:21.436Z,23.43
2018-09-30T11:14:10.541Z,24.43
2018-09-30T11:16:48.789Z,24.20
2018-09-30T11:19:26.001Z,21.00
2018-09-30T11:22:03.727Z,27.67
2018-09-30T11:24:44.765Z,22.77
2018-09-30T11:27:25.727Z,20.77
2018-09-30T11:30:03.439Z,31.73
2018-09-30T11:32:40.698Z,20.43
2018-09-30T11:35:27.229Z,21.33
2018-09-30T11:38:05.850Z,23.90
2018-09-30T11:40:47.241Z,24.40
2018-09-30T11:56:49.249Z,24.30
2018-09-30T11:59:29.166Z,24.50
2018-09-30T12:02:00.161Z,24.90
2018-09-30T12:04:41.315Z,25.77
2018-09-30T12:10:26.381Z,27.47
2018-09-30T12:13:00.472Z,29.57
2018-09-30T12:15:31.746Z,22.80
2018-09-30T12:18:03.726Z,27.23
2018-09-30T12:20:36.104Z,28.37
2018-09-30T12:23:09.810Z,30.07
2018-09-30T12:25:57.702Z,29.23
2018-09-30T12:28:29.104Z,30.23
2018-09-30T12:31:01.204Z,30.77
2018-09-30T12:33:32.449Z,32.80
2018-09-30T12:36:04.035Z,32.17
2018-09-30T12:38:46.334Z,30.93
2018-09-30T12:41:30.268Z,34.40
2018-09-30T12:44:09.361Z,36.40
2018-09-30T12:46:46.293Z,36.67
2018-09-30T12:49:23.698Z,32.77
2018-09-30T12:52:00.932Z,34.07
2018-09-30T12:54:41.170Z,35.27
2018-09-30T12:57:21.041Z,28.63
2018-09-30T13:00:02.189Z,31.17
2018-09-30T13:02:46.493Z,36.30
2018-09-30T13:05:25.771Z,37.90
2018-09-30T13:08:07.136Z,38.40
2018-09-30T13:10:46.690Z,35.63
2018-09-30T13:13:27.871Z,33.53
2018-09-30T13:16:07.717Z,34.90
2018-09-30T13:18:51.892Z,27.43
2018-09-30T13:21:40.313Z,33.63
2018-09-30T13:24:20.451Z,31.17
2018-09-30T13:27:00.538Z,36.40
2018-09-30T13:29:56.513Z,27.27
2018-09-30T13:32:35.497Z,33.07
2018-09-30T13:35:14.853Z,35.90
2018-09-30T13:37:53.549Z,28.37
2018-09-30T13:40:35.252Z,34.50
2018-09-30T13:43:18.932Z,32.10
2018-09-30T13:46:01.316Z,33.57
2018-09-30T13:48:52.748Z,34.97
2018-09-30T13:51:32.252Z,34.87
2018-09-30T13:54:10.856Z,36.60
2018-09-30T13:56:49.252Z,37.13
2018-09-30T13:59:44.173Z,38.07
2018-09-30T14:02:31.994Z,31.80
2018-09-30T14:05:16.331Z,29.23
2018-09-30T14:07:53.353Z,34.13
2018-09-30T14:10:44.779Z,36.30
2018-09-30T14:13:35.020Z,37.37
2018-09-30T14:16:25.894Z,33.97
2018-09-30T14:19:05.653Z,31.97
2018-09-30T14:21:47.195Z,34.07
2018-09-30T14:24:25.144Z,33.03
2018-09-30T14:27:13.825Z,37.33
2018-09-30T14:29:54.378Z,35.60
2018-09-30T14:32:34.630Z,36.93
2018-09-30T14:35:15.938Z,36.40
2018-09-30T14:37:57.936Z,34.87
2018-09-30T14:40:37.338Z,36.10
2018-09-30T14:43:21.676Z,36.80
2018-09-30T14:46:02.311Z,35.57
2018-09-30T14:48:42.905Z,36.67
2018-09-30T14:51:24.512Z,37.00
2018-09-30T14:54:07.624Z,38.17
2018-09-30T14:56:45.634Z,39.63
2018-09-30T14:59:25.593Z,34.93
2018-09-30T15:02:08.604Z,38.80
2018-09-30T15:04:49.579Z,39.57
2018-09-30T15:07:27.410Z,38.87
2018-09-30T15:10:06.992Z,38.20
2018-09-30T15:12:48.693Z,39.20
2018-09-30T15:15:25.534Z,40.13
2018-09-30T15:18:03.313Z,34.30
2018-09-30T15:20:46.519Z,45.13
2018-09-30T15:23:25.498Z,47.07
2018-09-30T15:26:05.380Z,55.40
2018-09-30T15:28:45.973Z,51.53
2018-09-30T15:31:25.158Z,40.57
2018-09-30T15:34:05.999Z,41.07
2018-09-30T15:36:44.118Z,41.03
2018-09-30T15:39:21.097Z,38.90
2018-09-30T15:42:01.058Z,40.00
2018-09-30T15:44:39.157Z,43.87
2018-09-30T15:47:18.741Z,43.60
2018-09-30T15:49:57.334Z,41.33
2018-09-30T15:52:35.598Z,41.73
2018-09-30T15:55:16.700Z,46.63
2018-09-30T15:57:55.937Z,43.57
2018-09-30T16:00:33.619Z,51.47
2018-09-30T16:03:18.155Z,58.70
2018-09-30T16:06:01.148Z,63.83
2018-09-30T16:08:44.175Z,88.10
2018-09-30T16:11:27.479Z,108.27
2018-09-30T16:14:06.445Z,135.87
2018-09-30T16:16:43.076Z,157.30
2018-09-30T16:19:19.817Z,179.13
2018-09-30T16:21:56.719Z,211.00
2018-09-30T16:24:37.383Z,189.73
2018-09-30T16:27:18.599Z,179.60
2018-09-30T16:29:57.597Z,168.10
2018-09-30T16:32:38.055Z,117.93
2018-09-30T16:35:21.384Z,93.67
2018-09-30T16:37:59.217Z,75.93
2018-09-30T16:40:43.618Z,57.37
2018-09-30T16:43:22.964Z,56.00
2018-09-30T16:46:00.018Z,47.70
2018-09-30T16:48:36.999Z,45.93
2018-09-30T16:51:20.461Z,42.10
2018-09-30T16:53:57.389Z,41.17
2018-09-30T16:56:34.056Z,36.27
2018-09-30T16:59:10.773Z,33.13
2018-09-30T17:01:49.079Z,27.97
2018-09-30T17:04:26.292Z,26.93
2018-09-30T17:07:06.959Z,32.93
2018-09-30T17:09:48.554Z,30.60
2018-09-30T17:12:28.938Z,27.83
2018-09-30T17:15:10.174Z,28.30
2018-09-30T17:17:47.455Z,25.77
2018-09-30T17:20:28.877Z,24.50
2018-09-30T17:23:08.461Z,24.97
2018-09-30T17:25:50.096Z,24.47
2018-09-30T17:28:28.038Z,24.03
2018-09-30T17:31:07.335Z,24.87
2018-09-30T17:33:45.056Z,35.83
2018-09-30T17:36:25.655Z,35.87
2018-09-30T17:39:03.398Z,52.67
2018-09-30T17:41:41.899Z,53.40
2018-09-30T17:44:20.476Z,33.93
2018-09-30T17:47:01.535Z,26.30
2018-09-30T17:49:41.957Z,54.30
2018-09-30T17:52:22.406Z,53.53
2018-09-30T17:55:03.278Z,134.20
2018-09-30T17:57:43.619Z,133.27
2018-09-30T18:00:24.542Z,130.93
2018-09-30T18:03:05.595Z,214.83
2018-09-30T18:05:44.537Z,279.07
2018-09-30T18:08:26.135Z,260.43
2018-09-30T18:11:05.260Z,278.37
2018-09-30T18:13:46.677Z,221.30
2018-09-30T18:16:26.520Z,159.97
2018-09-30T18:19:07.234Z,147.40
2018-09-30T18:21:46.053Z,117.73
2018-09-30T18:24:29.399Z,78.10
2018-09-30T18:27:08.677Z,54.03
2018-09-30T18:32:30.878Z,64.50
2018-09-30T18:35:11.122Z,45.80
2018-09-30T18:37:50.976Z,36.03
2018-09-30T18:40:31.557Z,46.17
2018-09-30T18:43:11.821Z,37.20
2018-09-30T18:45:52.282Z,45.23
2018-09-30T18:48:29.600Z,48.30
2018-09-30T18:51:12.359Z,64.27
2018-09-30T18:53:50.557Z,61.57
2018-09-30T18:56:31.837Z,76.40
2018-09-30T18:59:11.460Z,130.43
2018-09-30T19:01:52.338Z,184.73
2018-09-30T19:04:31.235Z,278.90
2018-09-30T19:07:11.780Z,341.77
2018-09-30T19:09:50.738Z,315.83
2018-09-30T19:12:30.961Z,490.87
2018-09-30T19:15:12.195Z,602.97
2018-09-30T19:17:51.440Z,717.93
2018-09-30T19:20:30.056Z,778.33
2018-09-30T19:23:08.916Z,800.83
2018-09-30T19:25:51.335Z,814.23
2018-09-30T19:28:30.338Z,838.43
2018-09-30T19:31:09.698Z,742.33
2018-09-30T19:33:50.477Z,688.30
2018-09-30T19:36:28.076Z,766.13
2018-09-30T19:39:09.063Z,721.33
2018-09-30T19:41:50.277Z,681.43
2018-09-30T19:44:29.222Z,682.13
2018-09-30T19:47:10.898Z,695.53
2018-09-30T19:49:49.714Z,682.33
2018-09-30T19:52:30.882Z,685.03
2018-09-30T19:55:11.646Z,612.50
2018-09-30T19:57:50.938Z,738.60
2018-09-30T20:00:32.218Z,648.33
2018-09-30T20:03:11.223Z,694.67
2018-09-30T20:05:51.033Z,683.43
2018-09-30T20:08:31.879Z,728.23
2018-09-30T20:11:11.317Z,719.97
2018-09-30T20:13:51.798Z,717.20
2018-09-30T20:16:32.200Z,715.57
2018-09-30T20:19:11.439Z,649.70
2018-09-30T20:21:52.377Z,629.33
2018-09-30T20:24:32.895Z,627.80
2018-09-30T20:27:11.997Z,531.23
2018-09-30T20:29:50.051Z,465.27
2018-09-30T20:32:29.718Z,350.40
2018-09-30T20:35:11.580Z,300.13
2018-09-30T20:37:50.635Z,249.17
2018-09-30T20:40:29.164Z,253.17
2018-09-30T20:43:10.295Z,188.10
2018-09-30T20:45:49.104Z,206.50
2018-09-30T20:48:29.396Z,201.80
2018-09-30T20:51:09.396Z,229.90
2018-09-30T20:53:49.197Z,280.83
2018-09-30T20:56:29.476Z,214.40
2018-09-30T20:59:09.120Z,250.63
2018-09-30T21:01:48.873Z,258.20
2018-09-30T21:04:25.713Z,237.47
2018-09-30T21:07:05.675Z,249.37
2018-09-30T21:09:42.774Z,243.50
2018-09-30T21:12:21.380Z,242.90
2018-09-30T21:15:05.663Z,236.20
2018-09-30T21:17:43.772Z,178.47
2018-09-30T21:20:20.914Z,126.23
2018-09-30T21:22:59.538Z,147.53
2018-09-30T21:25:37.955Z,151.97
2018-09-30T21:28:16.547Z,132.93
2018-09-30T21:30:56.537Z,129.33
2018-09-30T21:33:51.857Z,159.77
2018-09-30T21:36:31.714Z,158.23
2018-09-30T21:39:12.859Z,152.57
2018-09-30T21:41:52.323Z,135.30
2018-09-30T21:44:32.014Z,139.03
2018-09-30T21:47:10.955Z,122.97
2018-09-30T21:49:50.542Z,140.40
2018-09-30T21:52:30.957Z,127.20
2018-09-30T21:55:09.573Z,117.33
2018-09-30T21:57:48.296Z,126.10
2018-09-30T22:00:30.919Z,106.87
2018-09-30T22:03:11.196Z,87.50
2018-09-30T22:05:48.660Z,86.00
2018-09-30T22:08:27.098Z,81.03
2018-09-30T22:11:06.856Z,83.13
2018-09-30T22:13:45.576Z,77.23
2018-09-30T22:16:23.655Z,78.77
2018-09-30T22:19:02.940Z,75.87
2018-09-30T22:21:41.460Z,71.27
2018-09-30T22:24:35.662Z,67.00
2018-09-30T22:27:14.617Z,56.57
2018-09-30T22:29:54.575Z,46.67
2018-09-30T22:32:33.136Z,44.83
2018-09-30T22:35:12.596Z,44.13
2018-09-30T22:37:53.302Z,46.73
2018-09-30T22:40:30.076Z,45.03
2018-09-30T22:43:08.716Z,46.27
2018-09-30T22:45:48.621Z,46.60
2018-09-30T22:48:29.239Z,45.67
2018-09-30T22:51:08.495Z,62.30
2018-09-30T22:53:48.480Z,59.40
2018-09-30T22:56:27.119Z,53.50
2018-09-30T22:59:05.855Z,59.27
2018-09-30T23:01:44.276Z,68.90
2018-09-30T23:04:23.666Z,56.17
2018-09-30T23:07:01.757Z,58.87
2018-09-30T23:09:40.302Z,81.17
2018-09-30T23:12:17.779Z,74.47
2018-09-30T23:14:57.857Z,61.20
2018-09-30T23:17:36.380Z,57.27
2018-09-30T23:20:20.498Z,54.57
2018-09-30T23:22:58.736Z,71.57
2018-09-30T23:25:37.035Z,66.33
2018-09-30T23:28:16.214Z,131.00
2018-09-30T23:30:54.737Z,176.33
2018-09-30T23:33:32.219Z,229.23
2018-09-30T23:36:10.957Z,209.40
2018-09-30T23:38:50.115Z,232.10
2018-09-30T23:41:28.453Z,200.17
2018-09-30T23:44:07.556Z,261.00
2018-09-30T23:46:46.020Z,265.10
2018-09-30T23:49:28.160Z,223.20
2018-09-30T23:52:06.596Z,205.17
2018-09-30T23:54:45.819Z,265.50
2018-09-30T23:57:23.976Z,280.93
